.
WxDataArchive / Data Records for 2009-05-18
2009-05-17 May 2009 2009-05-19

Data Records for Monday, 18 May 2009

Time	Temp	Chill	HIndex	Humid	Dewpt	 Wind 	HiWind	WindDir	Rain 	Barom 
-----	----	-----	------	-----	-----	------	------	-------	-----	----- 
00:00	42.9	42.9	42.9	59	29.6	0	0	---	0.00	30.343 
00:05	42.6	42.6	42.6	61	30.1	0	0	---	0.00	30.343 
00:10	42.5	42.5	42.5	62	30.4	0	0	---	0.00	30.343 
00:15	42.3	42.3	42.3	64	31.0	0	0	---	0.00	30.346 
00:20	42.2	42.2	42.2	65	31.3	0	0	---	0.00	30.346 
00:25	41.9	41.9	41.9	63	30.2	0	0	---	0.00	30.346 
00:30	41.6	41.6	41.6	66	31.1	0	0	---	0.00	30.351 
00:35	41.5	41.5	41.5	66	31.0	0	0	---	0.00	30.351 
00:40	41.3	41.3	41.3	67	31.2	0	0	---	0.00	30.351 
00:45	41.2	41.2	41.2	67	31.1	0	0	---	0.00	30.353 
00:50	40.9	40.9	40.9	67	30.8	0	0	---	0.00	30.353 
00:55	40.8	40.8	40.8	68	31.1	0	0	---	0.00	30.353 
01:00	40.6	40.6	40.6	68	30.9	0	0	---	0.00	30.353 
01:05	40.3	40.3	40.3	68	30.6	0	0	---	0.00	30.353 
01:10	40.1	40.1	40.1	69	30.8	0	0	---	0.00	30.353 
01:15	39.9	39.9	39.9	70	30.9	0	0	---	0.00	30.352 
01:20	39.6	39.6	39.6	71	31.0	0	0	---	0.00	30.352 
01:25	39.5	39.5	39.5	71	30.9	0	0	---	0.00	30.352 
01:30	39.2	39.2	39.2	71	30.6	0	0	---	0.00	30.351 
01:35	39.1	39.1	39.1	70	30.2	0	0	---	0.00	30.351 
01:40	38.9	38.9	38.9	70	30.0	0	0	---	0.00	30.351 
01:45	38.8	38.8	38.8	70	29.9	0	0	---	0.00	30.350 
01:50	38.6	38.6	38.6	70	29.7	0	0	---	0.00	30.350 
01:55	38.5	38.5	38.5	70	29.6	0	0	---	0.00	30.350 
02:00	38.5	38.5	38.5	71	29.9	0	0	---	0.00	30.350 
02:05	38.5	38.5	38.5	72	30.3	0	0	---	0.00	30.350 
02:10	38.5	38.5	38.5	72	30.3	0	0	---	0.00	30.350 
02:15	38.3	38.3	38.3	71	29.7	0	0	---	0.00	30.348 
02:20	38.2	38.2	38.2	70	29.3	0	0	---	0.00	30.348 
02:25	38.2	38.2	38.2	71	29.6	0	0	---	0.00	30.348 
02:30	38.2	38.2	38.2	70	29.3	0	0	---	0.00	30.347 
02:35	38.2	38.2	38.2	70	29.3	0	0	---	0.00	30.347 
02:40	38.3	38.3	38.3	72	30.1	0	0	---	0.00	30.347 
02:45	38.3	38.3	38.3	73	30.4	0	0	---	0.00	30.343 
02:50	38.3	38.3	38.3	72	30.1	0	0	---	0.00	30.343 
02:55	38.5	38.5	38.5	71	29.9	0	0	---	0.00	30.343 
03:00	38.6	38.6	38.6	71	30.0	0	0	---	0.00	30.338 
03:05	38.6	38.6	38.6	71	30.0	0	0	---	0.00	30.338 
03:10	38.5	38.5	38.5	71	29.9	0	0	---	0.00	30.338 
03:15	38.3	38.3	38.3	71	29.7	0	0	---	0.00	30.341 
03:20	38.2	38.2	38.2	71	29.6	0	0	---	0.00	30.341 
03:25	38.0	38.0	38.0	72	29.8	0	0	---	0.00	30.341 
03:30	37.9	37.9	37.9	72	29.7	0	0	---	0.00	30.340 
03:35	37.6	37.6	37.6	72	29.4	0	0	---	0.00	30.340 
03:40	37.5	37.5	37.5	72	29.3	0	0	---	0.00	30.340 
03:45	37.3	37.3	37.3	73	29.5	0	0	---	0.00	30.339 
03:50	37.2	37.2	37.2	72	29.0	0	0	---	0.00	30.339 
03:55	37.0	37.0	37.0	73	29.2	0	0	---	0.00	30.339 
04:00	37.0	37.0	37.0	74	29.5	0	0	---	0.00	30.340 
04:05	36.9	36.9	36.9	75	29.7	0	0	---	0.00	30.340 
04:10	36.8	36.8	36.8	74	29.3	0	0	---	0.00	30.340 
04:15	36.6	36.6	36.6	73	28.8	0	0	---	0.00	30.340 
04:20	36.5	36.5	36.5	74	29.0	0	0	---	0.00	30.340 
04:25	36.3	36.3	36.3	74	28.8	0	0	---	0.00	30.340 
04:30	36.2	36.2	36.2	74	28.7	0	0	---	0.00	30.342 
04:35	36.0	36.0	36.0	75	28.9	0	0	---	0.00	30.342 
04:40	35.9	35.9	35.9	76	29.1	0	0	---	0.00	30.342 
04:45	35.8	35.8	35.8	76	29.0	0	0	---	0.00	30.342 
04:50	35.8	35.8	35.8	76	29.0	0	0	---	0.00	30.342 
04:55	35.8	35.8	35.8	76	29.0	0	0	---	0.00	30.342 
05:00	35.5	35.5	35.5	77	29.0	0	0	---	0.00	30.341 
05:05	35.3	35.3	35.3	77	28.8	0	0	---	0.00	30.341 
05:10	35.2	35.2	35.2	78	29.0	0	0	---	0.00	30.341 
05:15	35.0	35.0	35.0	78	28.8	0	0	---	0.00	30.342 
05:20	34.9	34.9	34.9	79	29.1	0	0	---	0.00	30.342 
05:25	34.7	34.7	34.7	80	29.2	0	0	---	0.00	30.342 
05:30	34.6	34.6	34.6	80	29.1	0	0	---	0.00	30.346 
05:35	34.4	34.4	34.4	81	29.2	0	0	---	0.00	30.346 
05:40	34.3	34.3	34.3	81	29.1	0	0	---	0.00	30.346 
05:45	34.1	34.1	34.1	82	29.2	0	0	---	0.00	30.353 
05:50	34.1	34.1	34.1	83	29.5	0	0	---	0.00	30.353 
05:55	34.1	34.1	34.1	83	29.5	0	0	---	0.00	30.353 
06:00	34.0	34.0	34.0	84	29.7	0	0	---	0.00	30.358 
06:05	33.8	33.8	33.8	84	29.5	0	0	---	0.00	30.358 
06:10	33.8	33.8	33.8	84	29.5	0	0	---	0.00	30.358 
06:15	33.8	33.8	33.8	84	29.5	0	0	---	0.00	30.364 
06:20	33.8	33.8	33.8	84	29.5	0	0	---	0.00	30.364 
06:25	33.7	33.7	33.7	85	29.7	0	0	---	0.00	30.364 
06:30	33.7	33.7	33.7	85	29.7	0	0	---	0.00	30.373 
06:35	33.7	33.7	33.7	86	30.0	0	0	---	0.00	30.373 
06:40	33.7	33.7	33.7	86	30.0	0	0	---	0.00	30.373 
06:45	33.7	33.7	33.7	86	30.0	0	0	---	0.00	30.377 
06:50	33.8	33.8	33.8	87	30.3	0	0	---	0.00	30.377 
06:55	34.0	34.0	34.0	87	30.5	0	0	---	0.00	30.377 
07:00	34.1	34.1	34.1	88	30.9	0	0	---	0.00	30.382 
07:05	34.4	34.4	34.4	88	31.2	0	0	---	0.00	30.382 
07:10	34.7	34.7	34.7	88	31.5	0	0	---	0.00	30.382 
07:15	35.2	35.2	35.2	88	32.0	0	0	---	0.00	30.393 
07:20	35.8	35.8	35.8	88	32.6	0	0	---	0.00	30.393 
07:25	36.5	36.5	36.5	88	33.3	0	0	---	0.00	30.393 
07:30	37.2	37.2	37.2	87	33.7	0	0	---	0.00	30.392 
07:35	38.0	38.0	38.0	85	33.9	0	0	---	0.00	30.392 
07:40	39.1	39.1	39.1	84	34.7	0	0	---	0.00	30.392 
07:45	40.2	40.2	40.2	82	35.2	0	0	---	0.00	30.393 
07:50	41.5	41.5	41.5	80	35.8	0	0	---	0.00	30.393 
07:55	42.9	42.9	42.9	77	36.2	0	0	---	0.00	30.393 
08:00	44.6	44.6	44.6	73	36.5	0	0	---	0.00	30.394 
08:05	46.2	46.2	46.2	58	32.2	1	3	270	0.00	30.394 
08:10	47.9	47.9	47.9	50	30.2	1	3	270	0.00	30.394 
08:15	49.2	49.2	49.2	51	31.9	0	1	270	0.00	30.394 
08:20	50.4	50.4	50.4	48	31.5	0	2	45	0.00	30.394 
08:25	51.4	51.4	51.4	45	30.8	0	3	45	0.00	30.394 
08:30	52.0	52.0	52.0	46	31.9	0	2	45	0.00	30.396 
08:35	52.5	52.5	52.5	45	31.8	0	1	45	0.00	30.396 
08:40	52.9	52.9	52.9	44	31.6	1	3	112	0.00	30.396 
08:45	53.2	53.2	53.2	44	31.9	1	3	112	0.00	30.394 
08:50	53.8	53.8	53.8	41	30.7	0	1	112	0.00	30.394 
08:55	54.4	54.4	54.4	42	31.8	1	2	135	0.00	30.394 
09:00	54.7	54.7	54.7	39	30.2	1	3	68	0.00	30.395 
09:05	55.4	55.4	55.4	41	32.1	0	3	90	0.00	30.395 
09:10	55.9	55.9	55.9	39	31.3	1	2	112	0.00	30.395 
09:15	55.9	55.9	55.9	43	33.7	1	3	112	0.00	30.400 
09:20	56.2	56.2	56.2	40	32.2	0	3	112	0.00	30.400 
09:25	56.7	56.7	56.7	39	32.0	0	2	112	0.00	30.400 
09:30	57.0	57.0	57.0	33	28.2	2	5	112	0.00	30.401 
09:35	56.9	56.9	56.9	39	32.2	1	4	112	0.00	30.401 
09:40	56.9	56.9	56.9	38	31.6	1	4	112	0.00	30.401 
09:45	57.6	57.6	57.6	35	30.2	1	3	112	0.00	30.405 
09:50	58.3	58.3	58.3	32	28.6	1	2	90	0.00	30.405 
09:55	58.9	58.9	58.9	30	27.5	1	2	68	0.00	30.405 
10:00	59.0	59.0	59.0	31	28.4	1	5	90	0.00	30.402 
10:05	58.9	58.9	58.9	29	26.7	1	4	90	0.00	30.402 
10:10	58.9	58.9	58.9	31	28.3	1	3	90	0.00	30.402 
10:15	59.3	59.3	59.3	31	28.7	1	2	90	0.00	30.406 
10:20	59.6	59.6	59.6	28	26.5	1	4	112	0.00	30.406 
10:25	60.1	60.1	60.1	30	28.6	0	1	45	0.00	30.406 
10:30	60.2	60.2	60.2	20	19.0	1	3	135	0.00	30.401 
10:35	59.9	59.9	59.9	26	24.9	2	5	68	0.00	30.401 
10:40	59.9	59.9	59.9	28	26.7	1	3	68	0.00	30.401 
10:45	60.2	60.2	60.2	27	26.1	1	3	112	0.00	30.400 
10:50	59.8	59.8	59.8	26	24.9	1	3	248	0.00	30.400 
10:55	60.1	60.1	60.1	23	22.2	1	3	248	0.00	30.400 
11:00	60.5	60.5	60.5	25	24.5	1	3	112	0.00	30.398 
11:05	61.0	61.0	61.0	26	25.9	1	4	90	0.00	30.398 
11:10	61.3	61.3	61.3	26	26.1	1	3	90	0.00	30.398 
11:15	62.0	62.0	62.0	24	24.8	0	2	90	0.00	30.400 
11:20	62.3	62.3	62.3	21	21.9	2	4	112	0.00	30.400 
11:25	62.1	62.1	62.1	24	24.9	1	5	112	0.00	30.400 
11:30	61.5	61.5	61.5	25	25.4	1	2	292	0.00	30.397 
11:35	61.6	61.6	61.6	22	22.4	1	4	90	0.00	30.397 
11:40	61.8	61.8	61.8	22	22.6	1	5	90	0.00	30.397 
11:45	62.1	62.1	62.1	24	24.9	1	3	90	0.00	30.397 
11:50	62.3	62.3	62.3	27	27.9	1	4	90	0.00	30.397 
11:55	62.1	62.1	62.1	25	25.9	1	3	90	0.00	30.397 
12:00	62.3	62.3	62.3	22	23.0	2	5	135	0.00	30.397 
12:05	62.0	62.0	62.0	21	21.6	2	6	90	0.00	30.397 
12:10	61.8	61.8	61.8	24	24.6	1	3	90	0.00	30.397 
12:15	61.5	61.5	61.5	23	23.4	1	3	90	0.00	30.395 
12:20	61.5	61.5	61.5	22	22.3	1	3	292	0.00	30.395 
12:25	62.0	62.0	62.0	27	27.6	1	4	315	0.00	30.395 
12:30	62.6	62.6	62.6	24	25.3	2	5	90	0.00	30.391 
12:35	62.3	62.3	62.3	24	25.1	2	6	90	0.00	30.391 
12:40	62.3	62.3	62.3	24	25.1	2	5	112	0.00	30.391 
12:45	62.4	62.4	62.4	25	26.1	1	3	248	0.00	30.388 
12:50	62.4	62.4	62.4	27	28.0	0	3	270	0.00	30.388 
12:55	62.6	62.6	62.6	24	25.3	1	3	112	0.00	30.388 
13:00	62.7	62.7	62.7	24	25.4	2	7	90	0.00	30.381 
13:05	62.7	62.7	62.7	27	28.2	2	6	112	0.00	30.381 
13:10	62.4	62.4	62.4	21	22.0	2	9	90	0.00	30.381 
13:15	62.6	62.6	62.6	22	23.2	1	5	90	0.00	30.381 
13:20	62.7	62.7	62.7	24	25.4	2	6	90	0.00	30.381 
13:25	62.6	62.6	62.6	23	24.3	3	6	112	0.00	30.381 
13:30	62.4	62.4	62.4	21	22.0	2	5	90	0.00	30.377 
13:35	62.6	62.6	62.6	22	23.2	2	5	112	0.00	30.377 
13:40	63.1	63.1	63.1	25	26.7	2	5	90	0.00	30.377 
13:45	63.7	63.7	63.7	31	32.5	0	2	90	0.00	30.368 
13:50	64.0	64.0	64.0	22	24.4	2	5	90	0.00	30.368 
13:55	63.9	63.9	63.9	22	24.3	1	4	112	0.00	30.368 
14:00	64.0	64.0	64.0	22	24.4	1	4	292	0.00	30.365 
14:05	64.2	64.2	64.2	23	25.6	1	5	90	0.00	30.365 
14:10	64.5	64.5	64.5	24	26.9	1	4	112	0.00	30.365 
14:15	64.8	64.8	64.8	24	27.2	1	3	112	0.00	30.361 
14:20	64.7	64.7	64.7	21	23.9	2	7	90	0.00	30.361 
14:25	64.7	64.7	64.7	27	29.9	1	4	90	0.00	30.361 
14:30	64.8	64.8	64.8	21	24.0	1	3	90	0.00	30.357 
14:35	65.2	65.2	65.2	25	28.5	1	3	68	0.00	30.357 
14:40	65.0	65.0	65.0	23	26.3	2	4	90	0.00	30.357 
14:45	65.0	65.0	65.0	27	30.2	1	4	90	0.00	30.353 
14:50	65.5	65.5	65.5	24	27.8	1	6	90	0.00	30.353 
14:55	65.5	65.5	65.5	26	29.7	1	7	270	0.00	30.353 
15:00	65.2	65.2	65.2	25	28.5	1	3	112	0.00	30.352 
15:05	65.5	65.5	65.5	31	34.1	1	4	112	0.00	30.352 
15:10	65.8	65.8	65.8	21	24.8	1	4	90	0.00	30.352 
15:15	65.6	65.6	65.6	20	23.5	2	6	90	0.00	30.352 
15:20	65.6	65.6	65.6	22	25.7	1	5	45	0.00	30.352 
15:25	65.5	65.5	65.5	24	27.8	1	4	292	0.00	30.352 
15:30	65.5	65.5	65.5	22	25.6	1	4	90	0.00	30.346 
15:35	65.8	65.8	65.8	21	24.8	1	6	112	0.00	30.346 
15:40	66.1	66.1	66.1	25	29.3	1	3	90	0.00	30.346 
15:45	66.4	66.4	66.4	25	29.5	1	3	90	0.00	30.337 
15:50	66.8	66.8	66.8	24	28.8	1	3	90	0.00	30.337 
15:55	66.8	66.8	66.8	27	31.7	2	9	90	0.00	30.337 
16:00	66.6	66.6	66.6	26	30.6	1	4	112	0.00	30.333 
16:05	66.3	66.3	66.3	22	26.3	3	7	90	0.00	30.333 
16:10	65.8	65.8	65.8	22	25.9	2	4	90	0.00	30.333 
16:15	65.8	65.8	65.8	22	25.9	1	8	248	0.00	30.333 
16:20	65.8	65.8	65.8	28	31.8	1	3	135	0.00	30.333 
16:25	66.0	66.0	66.0	25	29.2	1	4	112	0.00	30.333 
16:30	66.0	66.0	66.0	24	28.2	2	4	112	0.00	30.327 
16:35	66.1	66.1	66.1	27	31.1	1	5	90	0.00	30.327 
16:40	66.0	66.0	66.0	22	26.1	1	4	270	0.00	30.327 
16:45	65.8	65.8	65.8	25	29.0	1	4	270	0.00	30.320 
16:50	66.0	66.0	66.0	22	26.1	2	5	248	0.00	30.320 
16:55	66.0	66.0	66.0	24	28.2	1	4	315	0.00	30.320 
17:00	66.1	66.1	66.1	20	23.9	1	4	90	0.00	30.313 
17:05	66.3	66.3	66.3	24	28.4	1	4	90	0.00	30.313 
17:10	66.4	66.4	66.4	26	30.5	0	3	90	0.00	30.313 
17:15	66.6	66.6	66.6	24	28.7	1	3	68	0.00	30.314 
17:20	66.6	66.6	66.6	23	27.6	1	4	112	0.00	30.314 
17:25	67.1	67.1	67.1	23	28.1	0	3	270	0.00	30.314 
17:30	66.8	66.8	66.8	22	26.7	1	5	248	0.00	30.312 
17:35	66.9	66.9	66.9	24	28.9	1	3	68	0.00	30.312 
17:40	67.1	67.1	67.1	24	29.1	1	3	112	0.00	30.312 
17:45	66.6	66.6	66.6	21	25.4	2	5	112	0.00	30.310 
17:50	66.1	66.1	66.1	24	28.3	1	5	90	0.00	30.310 
17:55	66.0	66.0	66.0	23	27.1	1	4	248	0.00	30.310 
18:00	65.8	65.8	65.8	22	25.9	1	4	248	0.00	30.307 
18:05	65.6	65.6	65.6	24	27.8	1	4	270	0.00	30.307 
18:10	65.5	65.5	65.5	22	25.6	1	4	248	0.00	30.307 
18:15	65.3	65.3	65.3	24	27.6	1	4	248	0.00	30.309 
18:20	65.2	65.2	65.2	25	28.5	0	2	270	0.00	30.309 
18:25	65.0	65.0	65.0	23	26.3	1	4	292	0.00	30.309 
18:30	64.7	64.7	64.7	24	27.1	1	5	315	0.00	30.307 
18:35	64.5	64.5	64.5	25	27.9	0	3	315	0.00	30.307 
18:40	64.5	64.5	64.5	23	25.9	1	4	90	0.00	30.307 
18:45	64.3	64.3	64.3	22	24.6	0	1	90	0.00	30.308 
18:50	64.2	64.2	64.2	22	24.6	1	4	135	0.00	30.308 
18:55	64.0	64.0	64.0	25	27.5	0	2	135	0.00	30.308 
19:00	64.0	64.0	64.0	25	27.5	0	3	292	0.00	30.308 
19:05	63.7	63.7	63.7	25	27.2	0	3	270	0.00	30.308 
19:10	63.5	63.5	63.5	25	27.1	1	2	270	0.00	30.308 
19:15	63.4	63.4	63.4	25	27.0	0	1	270	0.00	30.296 
19:20	63.4	63.4	63.4	25	27.0	1	2	270	0.00	30.296 
19:25	63.2	63.2	63.2	25	26.8	1	3	292	0.00	30.296 
19:30	63.1	63.1	63.1	25	26.7	1	3	112	0.00	30.298 
19:35	62.9	62.9	62.9	25	26.5	0	2	270	0.00	30.298 
19:40	62.9	62.9	62.9	25	26.5	1	4	90	0.00	30.298 
19:45	62.7	62.7	62.7	27	28.2	0	1	90	0.00	30.298 
19:50	62.6	62.6	62.6	27	28.2	0	1	90	0.00	30.298 
19:55	62.4	62.4	62.4	26	27.1	1	3	90	0.00	30.298 
20:00	62.4	62.4	62.4	26	27.1	0	2	90	0.00	30.298 
20:05	62.4	62.4	62.4	27	28.0	0	2	90	0.00	30.298 
20:10	62.3	62.3	62.3	27	27.9	0	2	90	0.00	30.298 
20:15	62.1	62.1	62.1	27	27.7	0	2	90	0.00	30.293 
20:20	61.6	61.6	61.6	28	28.2	0	1	90	0.00	30.293 
20:25	61.3	61.3	61.3	28	27.9	0	0	---	0.00	30.293 
20:30	61.0	61.0	61.0	29	28.5	0	0	---	0.00	30.294 
20:35	60.5	60.5	60.5	30	28.9	0	0	---	0.00	30.294 
20:40	60.1	60.1	60.1	31	29.4	0	0	---	0.00	30.294 
20:45	59.5	59.5	59.5	31	28.8	0	0	---	0.00	30.297 
20:50	59.2	59.2	59.2	32	29.4	0	0	---	0.00	30.297 
20:55	58.6	58.6	58.6	34	30.3	0	0	---	0.00	30.297 
21:00	58.1	58.1	58.1	33	29.2	0	0	---	0.00	30.297 
21:05	57.6	57.6	57.6	37	31.5	0	0	---	0.00	30.297 
21:10	57.2	57.2	57.2	36	30.5	0	0	---	0.00	30.297 
21:15	56.6	56.6	56.6	37	30.6	0	0	---	0.00	30.295 
21:20	56.2	56.2	56.2	38	30.9	0	0	---	0.00	30.295 
21:25	55.7	55.7	55.7	39	31.1	0	0	---	0.00	30.295 
21:30	55.4	55.4	55.4	44	33.9	0	0	---	0.00	30.295 
21:35	55.0	55.0	55.0	46	34.6	0	0	---	0.00	30.295 
21:40	54.5	54.5	54.5	45	33.6	0	0	---	0.00	30.295 
21:45	54.2	54.2	54.2	44	32.8	0	0	---	0.00	30.299 
21:50	54.2	54.2	54.2	47	34.4	0	0	---	0.00	30.299 
21:55	54.1	54.1	54.1	49	35.4	0	0	---	0.00	30.299 
22:00	54.1	54.1	54.1	48	34.8	0	0	---	0.00	30.299 
22:05	54.1	54.1	54.1	49	35.4	0	0	---	0.00	30.299 
22:10	54.1	54.1	54.1	47	34.3	0	0	---	0.00	30.299 
22:15	54.1	54.1	54.1	47	34.3	0	0	---	0.00	30.295 
22:20	54.1	54.1	54.1	47	34.3	0	0	---	0.00	30.295 
22:25	54.1	54.1	54.1	47	34.3	0	0	---	0.00	30.295 
22:30	54.1	54.1	54.1	50	35.9	0	0	---	0.00	30.293 
22:35	54.2	54.2	54.2	50	36.0	0	0	---	0.00	30.293 
22:40	54.4	54.4	54.4	47	34.6	0	1	90	0.00	30.293 
22:45	54.5	54.5	54.5	47	34.7	0	0	---	0.00	30.288 
22:50	54.8	54.8	54.8	44	33.3	0	1	90	0.00	30.288 
22:55	55.1	55.1	55.1	45	34.1	0	0	---	0.00	30.288 
23:00	55.4	55.4	55.4	44	33.9	0	0	---	0.00	30.292 
23:05	55.6	55.6	55.6	42	32.9	0	1	90	0.00	30.292 
23:10	55.9	55.9	55.9	41	32.5	0	1	90	0.00	30.292 
23:15	56.0	56.0	56.0	40	32.0	0	1	90	0.00	30.289 
23:20	56.3	56.3	56.3	40	32.3	0	1	90	0.00	30.289 
23:25	56.6	56.6	56.6	41	33.2	0	1	90	0.00	30.289 
23:30	56.7	56.7	56.7	43	34.5	0	0	---	0.00	30.291 
23:35	56.7	56.7	56.7	42	33.9	0	0	---	0.00	30.291 
23:40	56.7	56.7	56.7	45	35.6	0	0	---	0.00	30.291 
23:45	56.6	56.6	56.6	46	36.1	0	0	---	0.00	30.293 
23:50	56.3	56.3	56.3	44	34.7	0	0	---	0.00	30.293 
23:55	56.3	56.3	56.3	46	35.8	0	0	---	0.00	30.293 

CoCoRaHS
IN-AL-39
A2 Web Hosting
Creative Commons License
GoDaddy
search engine by freefind advanced

loaded 2018-11-12 15:22:53 • last modified 2010-11-18 10:43:29
Privacy PolicyDisclaimer
• wx.awcolley.com is powered by PmWiki v.2002016 •
• all content (unless otherwise noted) © 2018 A W Colley